sensor_id;sensor_type;location;lat;lon;timestamp;P1;durP1;ratioP1;P2;durP2;ratioP2
5549;SDS011;2798;42.716;23.256;2023-05-31T00:01:07;3.00;;;2.70;;
5549;SDS011;2798;42.716;23.256;2023-05-31T00:03:33;4.87;;;3.07;;
5549;SDS011;2798;42.716;23.256;2023-05-31T00:05:59;3.77;;;2.70;;
5549;SDS011;2798;42.716;23.256;2023-05-31T00:08:24;5.73;;;2.93;;
5549;SDS011;2798;42.716;23.256;2023-05-31T00:10:49;3.50;;;3.20;;
5549;SDS011;2798;42.716;23.256;2023-05-31T00:13:15;3.73;;;3.07;;
5549;SDS011;2798;42.716;23.256;2023-05-31T00:15:40;5.87;;;3.40;;
5549;SDS011;2798;42.716;23.256;2023-05-31T00:18:06;5.00;;;3.40;;
5549;SDS011;2798;42.716;23.256;2023-05-31T00:20:31;10.13;;;6.83;;
5549;SDS011;2798;42.716;23.256;2023-05-31T00:22:56;12.60;;;5.80;;
5549;SDS011;2798;42.716;23.256;2023-05-31T00:25:22;12.53;;;9.80;;
5549;SDS011;2798;42.716;23.256;2023-05-31T00:27:47;8.03;;;5.30;;
5549;SDS011;2798;42.716;23.256;2023-05-31T00:30:13;7.40;;;4.37;;
5549;SDS011;2798;42.716;23.256;2023-05-31T00:32:38;4.30;;;3.90;;
5549;SDS011;2798;42.716;23.256;2023-05-31T00:35:04;5.77;;;3.97;;
5549;SDS011;2798;42.716;23.256;2023-05-31T00:37:30;6.97;;;3.47;;
5549;SDS011;2798;42.716;23.256;2023-05-31T00:40:01;5.40;;;3.37;;
5549;SDS011;2798;42.716;23.256;2023-05-31T00:42:28;4.40;;;3.53;;
5549;SDS011;2798;42.716;23.256;2023-05-31T00:44:53;6.80;;;4.07;;
5549;SDS011;2798;42.716;23.256;2023-05-31T00:47:18;4.47;;;3.90;;
5549;SDS011;2798;42.716;23.256;2023-05-31T00:49:44;4.67;;;3.30;;
5549;SDS011;2798;42.716;23.256;2023-05-31T00:52:10;4.40;;;3.50;;
5549;SDS011;2798;42.716;23.256;2023-05-31T00:54:36;4.33;;;3.50;;
5549;SDS011;2798;42.716;23.256;2023-05-31T00:57:02;5.93;;;4.37;;
5549;SDS011;2798;42.716;23.256;2023-05-31T00:59:27;4.97;;;4.47;;
5549;SDS011;2798;42.716;23.256;2023-05-31T01:01:54;6.40;;;3.57;;
5549;SDS011;2798;42.716;23.256;2023-05-31T01:04:22;5.67;;;3.70;;
5549;SDS011;2798;42.716;23.256;2023-05-31T01:06:48;3.50;;;3.20;;
5549;SDS011;2798;42.716;23.256;2023-05-31T01:09:15;4.27;;;3.30;;
5549;SDS011;2798;42.716;23.256;2023-05-31T01:16:52;4.70;;;3.90;;
5549;SDS011;2798;42.716;23.256;2023-05-31T01:19:43;5.57;;;4.13;;
5549;SDS011;2798;42.716;23.256;2023-05-31T01:25:14;4.27;;;3.87;;
5549;SDS011;2798;42.716;23.256;2023-05-31T01:27:57;5.20;;;3.57;;
5549;SDS011;2798;42.716;23.256;2023-05-31T01:30:24;6.47;;;3.90;;
5549;SDS011;2798;42.716;23.256;2023-05-31T01:32:52;7.60;;;4.23;;
5549;SDS011;2798;42.716;23.256;2023-05-31T01:35:21;3.40;;;3.03;;
5549;SDS011;2798;42.716;23.256;2023-05-31T01:37:46;5.70;;;3.67;;
5549;SDS011;2798;42.716;23.256;2023-05-31T01:40:11;6.47;;;3.63;;
5549;SDS011;2798;42.716;23.256;2023-05-31T01:42:38;4.03;;;3.63;;
5549;SDS011;2798;42.716;23.256;2023-05-31T01:45:05;3.73;;;3.40;;
5549;SDS011;2798;42.716;23.256;2023-05-31T01:47:31;4.53;;;3.70;;
5549;SDS011;2798;42.716;23.256;2023-05-31T01:49:57;7.50;;;3.40;;
5549;SDS011;2798;42.716;23.256;2023-05-31T01:52:23;6.13;;;4.03;;
5549;SDS011;2798;42.716;23.256;2023-05-31T01:54:51;4.20;;;3.80;;
5549;SDS011;2798;42.716;23.256;2023-05-31T01:57:16;4.03;;;3.63;;
5549;SDS011;2798;42.716;23.256;2023-05-31T01:59:42;4.90;;;4.00;;
5549;SDS011;2798;42.716;23.256;2023-05-31T02:02:08;15.23;;;4.40;;
5549;SDS011;2798;42.716;23.256;2023-05-31T02:04:34;6.33;;;3.30;;
5549;SDS011;2798;42.716;23.256;2023-05-31T02:07:00;4.50;;;3.70;;
5549;SDS011;2798;42.716;23.256;2023-05-31T02:09:25;10.23;;;4.40;;
5549;SDS011;2798;42.716;23.256;2023-05-31T02:11:51;4.53;;;3.90;;
5549;SDS011;2798;42.716;23.256;2023-05-31T02:14:16;4.30;;;3.90;;
5549;SDS011;2798;42.716;23.256;2023-05-31T02:16:42;4.40;;;4.00;;
5549;SDS011;2798;42.716;23.256;2023-05-31T02:19:07;6.07;;;4.37;;
5549;SDS011;2798;42.716;23.256;2023-05-31T02:21:33;10.33;;;3.67;;
5549;SDS011;2798;42.716;23.256;2023-05-31T02:24:00;5.67;;;4.17;;
5549;SDS011;2798;42.716;23.256;2023-05-31T02:26:26;7.53;;;4.43;;
5549;SDS011;2798;42.716;23.256;2023-05-31T02:28:52;6.10;;;4.60;;
5549;SDS011;2798;42.716;23.256;2023-05-31T02:31:17;5.77;;;4.00;;
5549;SDS011;2798;42.716;23.256;2023-05-31T02:33:42;5.07;;;4.20;;
5549;SDS011;2798;42.716;23.256;2023-05-31T02:36:09;10.67;;;4.70;;
5549;SDS011;2798;42.716;23.256;2023-05-31T02:38:35;4.93;;;4.37;;
5549;SDS011;2798;42.716;23.256;2023-05-31T02:41:00;6.43;;;5.20;;
5549;SDS011;2798;42.716;23.256;2023-05-31T02:43:25;7.50;;;5.27;;
5549;SDS011;2798;42.716;23.256;2023-05-31T02:45:51;5.70;;;4.60;;
5549;SDS011;2798;42.716;23.256;2023-05-31T02:48:16;6.53;;;4.77;;
5549;SDS011;2798;42.716;23.256;2023-05-31T02:50:42;7.23;;;4.60;;
5549;SDS011;2798;42.716;23.256;2023-05-31T02:53:07;9.40;;;4.93;;
5549;SDS011;2798;42.716;23.256;2023-05-31T02:55:33;5.73;;;4.33;;
5549;SDS011;2798;42.716;23.256;2023-05-31T02:57:58;5.50;;;4.40;;
5549;SDS011;2798;42.716;23.256;2023-05-31T03:00:24;5.37;;;4.57;;
5549;SDS011;2798;42.716;23.256;2023-05-31T03:02:51;6.20;;;4.83;;
5549;SDS011;2798;42.716;23.256;2023-05-31T03:05:17;8.57;;;5.23;;
5549;SDS011;2798;42.716;23.256;2023-05-31T03:07:42;6.70;;;4.70;;
5549;SDS011;2798;42.716;23.256;2023-05-31T03:10:08;10.13;;;5.10;;
5549;SDS011;2798;42.716;23.256;2023-05-31T03:12:34;17.20;;;5.00;;
5549;SDS011;2798;42.716;23.256;2023-05-31T03:14:59;10.10;;;5.40;;
5549;SDS011;2798;42.716;23.256;2023-05-31T03:17:25;7.47;;;5.30;;
5549;SDS011;2798;42.716;23.256;2023-05-31T03:19:50;5.53;;;4.80;;
5549;SDS011;2798;42.716;23.256;2023-05-31T03:22:16;6.87;;;5.30;;
5549;SDS011;2798;42.716;23.256;2023-05-31T03:24:42;7.40;;;5.60;;
5549;SDS011;2798;42.716;23.256;2023-05-31T03:27:07;8.97;;;5.50;;
5549;SDS011;2798;42.716;23.256;2023-05-31T03:29:33;11.27;;;5.87;;
5549;SDS011;2798;42.716;23.256;2023-05-31T03:32:02;9.40;;;5.87;;
5549;SDS011;2798;42.716;23.256;2023-05-31T03:34:27;12.17;;;5.67;;
5549;SDS011;2798;42.716;23.256;2023-05-31T03:36:53;9.50;;;6.03;;
5549;SDS011;2798;42.716;23.256;2023-05-31T03:39:18;8.47;;;6.20;;
5549;SDS011;2798;42.716;23.256;2023-05-31T03:41:43;7.60;;;5.97;;
5549;SDS011;2798;42.716;23.256;2023-05-31T03:44:09;10.37;;;5.80;;
5549;SDS011;2798;42.716;23.256;2023-05-31T03:46:34;7.73;;;4.77;;
5549;SDS011;2798;42.716;23.256;2023-05-31T03:49:00;6.83;;;5.30;;
5549;SDS011;2798;42.716;23.256;2023-05-31T03:51:26;7.83;;;4.93;;
5549;SDS011;2798;42.716;23.256;2023-05-31T03:53:51;7.80;;;5.13;;
5549;SDS011;2798;42.716;23.256;2023-05-31T03:56:16;6.73;;;4.90;;
5549;SDS011;2798;42.716;23.256;2023-05-31T03:58:42;9.93;;;5.23;;
5549;SDS011;2798;42.716;23.256;2023-05-31T04:01:07;8.27;;;5.07;;
5549;SDS011;2798;42.716;23.256;2023-05-31T04:03:33;12.27;;;5.67;;
5549;SDS011;2798;42.716;23.256;2023-05-31T04:05:58;12.80;;;5.87;;
5549;SDS011;2798;42.716;23.256;2023-05-31T04:08:24;8.93;;;5.10;;
5549;SDS011;2798;42.716;23.256;2023-05-31T04:10:49;7.60;;;5.47;;
5549;SDS011;2798;42.716;23.256;2023-05-31T04:13:15;9.77;;;4.90;;
5549;SDS011;2798;42.716;23.256;2023-05-31T04:15:40;7.90;;;5.70;;
5549;SDS011;2798;42.716;23.256;2023-05-31T04:18:05;6.53;;;5.00;;
5549;SDS011;2798;42.716;23.256;2023-05-31T04:20:31;8.77;;;5.17;;
5549;SDS011;2798;42.716;23.256;2023-05-31T04:22:56;8.63;;;5.63;;
5549;SDS011;2798;42.716;23.256;2023-05-31T04:25:22;10.20;;;5.80;;
5549;SDS011;2798;42.716;23.256;2023-05-31T04:27:47;13.53;;;5.63;;
5549;SDS011;2798;42.716;23.256;2023-05-31T04:30:14;8.30;;;6.00;;
5549;SDS011;2798;42.716;23.256;2023-05-31T04:32:40;9.50;;;5.50;;
5549;SDS011;2798;42.716;23.256;2023-05-31T04:35:06;16.10;;;5.93;;
5549;SDS011;2798;42.716;23.256;2023-05-31T04:37:33;9.00;;;5.47;;
5549;SDS011;2798;42.716;23.256;2023-05-31T04:39:59;10.10;;;6.10;;
5549;SDS011;2798;42.716;23.256;2023-05-31T04:42:28;14.70;;;5.73;;
5549;SDS011;2798;42.716;23.256;2023-05-31T04:44:53;14.50;;;6.90;;
5549;SDS011;2798;42.716;23.256;2023-05-31T04:47:23;9.20;;;6.40;;
5549;SDS011;2798;42.716;23.256;2023-05-31T04:49:49;11.87;;;5.70;;
5549;SDS011;2798;42.716;23.256;2023-05-31T04:52:15;9.10;;;7.37;;
5549;SDS011;2798;42.716;23.256;2023-05-31T04:54:41;11.37;;;7.17;;
5549;SDS011;2798;42.716;23.256;2023-05-31T04:57:07;11.00;;;6.93;;
5549;SDS011;2798;42.716;23.256;2023-05-31T04:59:32;9.77;;;6.20;;
5549;SDS011;2798;42.716;23.256;2023-05-31T05:01:58;13.60;;;8.23;;
5549;SDS011;2798;42.716;23.256;2023-05-31T05:04:23;9.57;;;6.00;;
5549;SDS011;2798;42.716;23.256;2023-05-31T05:06:48;13.63;;;6.40;;
5549;SDS011;2798;42.716;23.256;2023-05-31T05:09:14;12.30;;;6.20;;
5549;SDS011;2798;42.716;23.256;2023-05-31T05:11:39;7.07;;;5.70;;
5549;SDS011;2798;42.716;23.256;2023-05-31T05:14:05;13.37;;;5.90;;
5549;SDS011;2798;42.716;23.256;2023-05-31T05:16:30;11.83;;;6.10;;
5549;SDS011;2798;42.716;23.256;2023-05-31T05:18:56;13.80;;;6.77;;
5549;SDS011;2798;42.716;23.256;2023-05-31T05:21:21;12.07;;;7.50;;
5549;SDS011;2798;42.716;23.256;2023-05-31T05:23:47;14.30;;;6.57;;
5549;SDS011;2798;42.716;23.256;2023-05-31T05:26:12;12.97;;;7.80;;
5549;SDS011;2798;42.716;23.256;2023-05-31T05:28:38;9.73;;;7.87;;
5549;SDS011;2798;42.716;23.256;2023-05-31T05:31:03;12.20;;;7.20;;
5549;SDS011;2798;42.716;23.256;2023-05-31T05:33:29;8.40;;;7.17;;
5549;SDS011;2798;42.716;23.256;2023-05-31T05:35:55;8.63;;;6.40;;
5549;SDS011;2798;42.716;23.256;2023-05-31T05:38:21;12.27;;;8.87;;
5549;SDS011;2798;42.716;23.256;2023-05-31T05:40:46;20.53;;;8.60;;
5549;SDS011;2798;42.716;23.256;2023-05-31T05:43:11;14.30;;;8.77;;
5549;SDS011;2798;42.716;23.256;2023-05-31T05:45:37;13.30;;;8.03;;
5549;SDS011;2798;42.716;23.256;2023-05-31T05:48:03;15.37;;;8.37;;
5549;SDS011;2798;42.716;23.256;2023-05-31T05:50:29;19.80;;;10.00;;
5549;SDS011;2798;42.716;23.256;2023-05-31T05:52:54;15.57;;;10.93;;
5549;SDS011;2798;42.716;23.256;2023-05-31T05:55:19;14.57;;;8.43;;
5549;SDS011;2798;42.716;23.256;2023-05-31T05:57:45;13.97;;;7.70;;
5549;SDS011;2798;42.716;23.256;2023-05-31T06:00:11;12.60;;;7.97;;
5549;SDS011;2798;42.716;23.256;2023-05-31T06:02:39;16.30;;;7.77;;
5549;SDS011;2798;42.716;23.256;2023-05-31T06:05:05;14.60;;;7.60;;
5549;SDS011;2798;42.716;23.256;2023-05-31T06:07:32;13.20;;;6.37;;
5549;SDS011;2798;42.716;23.256;2023-05-31T06:09:57;11.10;;;7.33;;
5549;SDS011;2798;42.716;23.256;2023-05-31T06:12:24;11.33;;;6.60;;
5549;SDS011;2798;42.716;23.256;2023-05-31T06:14:49;13.97;;;6.63;;
5549;SDS011;2798;42.716;23.256;2023-05-31T06:17:15;19.83;;;8.23;;
5549;SDS011;2798;42.716;23.256;2023-05-31T06:19:40;12.60;;;7.70;;
5549;SDS011;2798;42.716;23.256;2023-05-31T06:22:06;13.17;;;7.23;;
5549;SDS011;2798;42.716;23.256;2023-05-31T06:24:31;9.63;;;6.27;;
5549;SDS011;2798;42.716;23.256;2023-05-31T06:26:57;16.70;;;6.70;;
5549;SDS011;2798;42.716;23.256;2023-05-31T06:29:22;14.50;;;6.60;;
5549;SDS011;2798;42.716;23.256;2023-05-31T06:31:48;25.13;;;6.90;;
5549;SDS011;2798;42.716;23.256;2023-05-31T06:34:13;21.70;;;7.40;;
5549;SDS011;2798;42.716;23.256;2023-05-31T06:36:38;10.43;;;6.73;;
5549;SDS011;2798;42.716;23.256;2023-05-31T06:39:04;19.03;;;6.83;;
5549;SDS011;2798;42.716;23.256;2023-05-31T06:41:29;13.73;;;7.60;;
5549;SDS011;2798;42.716;23.256;2023-05-31T06:43:57;8.93;;;6.80;;
5549;SDS011;2798;42.716;23.256;2023-05-31T06:46:23;8.50;;;6.20;;
5549;SDS011;2798;42.716;23.256;2023-05-31T06:48:48;15.17;;;6.97;;
5549;SDS011;2798;42.716;23.256;2023-05-31T06:51:13;10.70;;;6.40;;
5549;SDS011;2798;42.716;23.256;2023-05-31T06:53:41;9.20;;;6.90;;
5549;SDS011;2798;42.716;23.256;2023-05-31T06:56:06;10.10;;;6.53;;
5549;SDS011;2798;42.716;23.256;2023-05-31T06:58:32;9.27;;;6.07;;
5549;SDS011;2798;42.716;23.256;2023-05-31T07:00:57;10.30;;;7.03;;
5549;SDS011;2798;42.716;23.256;2023-05-31T07:03:23;8.83;;;6.60;;
5549;SDS011;2798;42.716;23.256;2023-05-31T07:05:48;12.50;;;6.80;;
5549;SDS011;2798;42.716;23.256;2023-05-31T07:08:14;13.03;;;6.77;;
5549;SDS011;2798;42.716;23.256;2023-05-31T07:10:42;9.80;;;6.67;;
5549;SDS011;2798;42.716;23.256;2023-05-31T07:13:09;13.03;;;6.47;;
5549;SDS011;2798;42.716;23.256;2023-05-31T07:15:34;10.13;;;6.30;;
5549;SDS011;2798;42.716;23.256;2023-05-31T07:18:00;13.33;;;6.80;;
5549;SDS011;2798;42.716;23.256;2023-05-31T07:20:25;10.20;;;6.47;;
5549;SDS011;2798;42.716;23.256;2023-05-31T07:22:51;14.33;;;6.10;;
5549;SDS011;2798;42.716;23.256;2023-05-31T07:25:16;12.83;;;6.30;;
5549;SDS011;2798;42.716;23.256;2023-05-31T07:27:42;12.83;;;7.50;;
5549;SDS011;2798;42.716;23.256;2023-05-31T07:30:07;14.87;;;7.30;;
5549;SDS011;2798;42.716;23.256;2023-05-31T07:32:33;20.60;;;7.53;;
5549;SDS011;2798;42.716;23.256;2023-05-31T07:34:58;11.17;;;6.40;;
5549;SDS011;2798;42.716;23.256;2023-05-31T07:37:24;9.20;;;5.63;;
5549;SDS011;2798;42.716;23.256;2023-05-31T07:39:49;7.13;;;5.20;;
5549;SDS011;2798;42.716;23.256;2023-05-31T07:42:15;9.27;;;4.97;;
5549;SDS011;2798;42.716;23.256;2023-05-31T07:44:40;7.00;;;5.03;;
5549;SDS011;2798;42.716;23.256;2023-05-31T07:47:06;7.87;;;4.97;;
5549;SDS011;2798;42.716;23.256;2023-05-31T07:49:31;6.40;;;5.40;;
5549;SDS011;2798;42.716;23.256;2023-05-31T07:51:57;6.20;;;4.77;;
5549;SDS011;2798;42.716;23.256;2023-05-31T07:54:22;7.90;;;5.20;;
5549;SDS011;2798;42.716;23.256;2023-05-31T07:56:47;7.20;;;5.50;;
5549;SDS011;2798;42.716;23.256;2023-05-31T07:59:13;10.23;;;4.97;;
5549;SDS011;2798;42.716;23.256;2023-05-31T08:01:38;7.97;;;4.90;;
5549;SDS011;2798;42.716;23.256;2023-05-31T08:04:07;5.63;;;4.77;;
5549;SDS011;2798;42.716;23.256;2023-05-31T08:06:34;8.83;;;5.97;;
5549;SDS011;2798;42.716;23.256;2023-05-31T08:09:02;8.30;;;4.60;;
5549;SDS011;2798;42.716;23.256;2023-05-31T08:11:30;6.80;;;5.67;;
5549;SDS011;2798;42.716;23.256;2023-05-31T08:13:55;10.23;;;4.87;;
5549;SDS011;2798;42.716;23.256;2023-05-31T08:16:21;9.20;;;5.60;;
5549;SDS011;2798;42.716;23.256;2023-05-31T08:18:46;6.47;;;5.30;;
5549;SDS011;2798;42.716;23.256;2023-05-31T08:21:12;8.20;;;5.20;;
5549;SDS011;2798;42.716;23.256;2023-05-31T08:23:37;5.23;;;4.53;;
5549;SDS011;2798;42.716;23.256;2023-05-31T08:26:03;6.10;;;5.30;;
5549;SDS011;2798;42.716;23.256;2023-05-31T08:28:28;6.97;;;4.80;;
5549;SDS011;2798;42.716;23.256;2023-05-31T08:30:56;7.40;;;5.17;;
5549;SDS011;2798;42.716;23.256;2023-05-31T08:33:25;6.70;;;5.03;;
5549;SDS011;2798;42.716;23.256;2023-05-31T08:35:54;5.90;;;4.80;;
5549;SDS011;2798;42.716;23.256;2023-05-31T08:38:25;6.50;;;4.80;;
5549;SDS011;2798;42.716;23.256;2023-05-31T08:40:54;5.43;;;4.60;;
5549;SDS011;2798;42.716;23.256;2023-05-31T08:43:25;8.63;;;4.97;;
5549;SDS011;2798;42.716;23.256;2023-05-31T08:45:52;7.00;;;4.80;;
5549;SDS011;2798;42.716;23.256;2023-05-31T08:48:21;6.83;;;5.07;;
5549;SDS011;2798;42.716;23.256;2023-05-31T08:50:56;6.53;;;4.73;;
5549;SDS011;2798;42.716;23.256;2023-05-31T08:53:25;6.73;;;4.73;;
5549;SDS011;2798;42.716;23.256;2023-05-31T08:55:51;6.63;;;4.53;;
5549;SDS011;2798;42.716;23.256;2023-05-31T08:58:18;8.60;;;5.27;;
5549;SDS011;2798;42.716;23.256;2023-05-31T09:00:44;8.53;;;4.70;;
5549;SDS011;2798;42.716;23.256;2023-05-31T09:03:11;12.40;;;5.37;;
5549;SDS011;2798;42.716;23.256;2023-05-31T09:05:37;5.80;;;4.40;;
5549;SDS011;2798;42.716;23.256;2023-05-31T09:08:02;7.23;;;4.80;;
5549;SDS011;2798;42.716;23.256;2023-05-31T09:10:28;10.53;;;5.17;;
5549;SDS011;2798;42.716;23.256;2023-05-31T09:12:54;8.30;;;5.40;;
5549;SDS011;2798;42.716;23.256;2023-05-31T09:15:21;5.43;;;4.60;;
5549;SDS011;2798;42.716;23.256;2023-05-31T09:17:48;6.60;;;4.90;;
5549;SDS011;2798;42.716;23.256;2023-05-31T09:20:13;7.63;;;4.80;;
5549;SDS011;2798;42.716;23.256;2023-05-31T09:22:39;7.57;;;5.20;;
5549;SDS011;2798;42.716;23.256;2023-05-31T09:25:05;9.00;;;5.87;;
5549;SDS011;2798;42.716;23.256;2023-05-31T09:27:38;12.43;;;5.77;;
5549;SDS011;2798;42.716;23.256;2023-05-31T09:30:11;10.23;;;5.77;;
5549;SDS011;2798;42.716;23.256;2023-05-31T09:32:38;8.90;;;5.70;;
5549;SDS011;2798;42.716;23.256;2023-05-31T09:35:13;8.23;;;5.47;;
5549;SDS011;2798;42.716;23.256;2023-05-31T09:37:44;9.20;;;6.40;;
5549;SDS011;2798;42.716;23.256;2023-05-31T09:40:15;10.10;;;6.10;;
5549;SDS011;2798;42.716;23.256;2023-05-31T09:42:49;7.37;;;5.80;;
5549;SDS011;2798;42.716;23.256;2023-05-31T09:45:15;9.33;;;5.80;;
5549;SDS011;2798;42.716;23.256;2023-05-31T09:47:41;9.50;;;5.50;;
5549;SDS011;2798;42.716;23.256;2023-05-31T09:50:25;11.10;;;6.10;;
5549;SDS011;2798;42.716;23.256;2023-05-31T09:52:57;14.87;;;6.00;;
5549;SDS011;2798;42.716;23.256;2023-05-31T09:55:23;11.90;;;6.23;;
5549;SDS011;2798;42.716;23.256;2023-05-31T09:57:50;9.57;;;5.40;;
5549;SDS011;2798;42.716;23.256;2023-05-31T10:00:17;8.53;;;5.20;;
5549;SDS011;2798;42.716;23.256;2023-05-31T10:02:43;13.53;;;6.33;;
5549;SDS011;2798;42.716;23.256;2023-05-31T10:05:10;9.33;;;5.33;;
5549;SDS011;2798;42.716;23.256;2023-05-31T10:07:37;8.53;;;5.93;;
5549;SDS011;2798;42.716;23.256;2023-05-31T10:10:05;10.80;;;5.60;;
5549;SDS011;2798;42.716;23.256;2023-05-31T10:12:31;6.87;;;5.17;;
5549;SDS011;2798;42.716;23.256;2023-05-31T10:15:02;9.03;;;5.13;;
5549;SDS011;2798;42.716;23.256;2023-05-31T10:17:34;10.93;;;6.10;;
5549;SDS011;2798;42.716;23.256;2023-05-31T10:20:07;9.80;;;5.73;;
5549;SDS011;2798;42.716;23.256;2023-05-31T10:22:36;11.80;;;6.10;;
5549;SDS011;2798;42.716;23.256;2023-05-31T10:25:09;13.30;;;7.17;;
5549;SDS011;2798;42.716;23.256;2023-05-31T10:27:42;14.70;;;5.57;;
5549;SDS011;2798;42.716;23.256;2023-05-31T10:30:09;15.17;;;6.77;;
5549;SDS011;2798;42.716;23.256;2023-05-31T10:32:42;12.67;;;6.00;;
5549;SDS011;2798;42.716;23.256;2023-05-31T10:35:11;14.43;;;6.43;;
5549;SDS011;2798;42.716;23.256;2023-05-31T10:37:40;13.50;;;6.37;;
5549;SDS011;2798;42.716;23.256;2023-05-31T10:40:11;17.23;;;6.80;;
5549;SDS011;2798;42.716;23.256;2023-05-31T10:47:49;14.23;;;6.47;;
5549;SDS011;2798;42.716;23.256;2023-05-31T10:50:20;15.20;;;5.87;;
5549;SDS011;2798;42.716;23.256;2023-05-31T10:52:51;14.43;;;6.47;;
5549;SDS011;2798;42.716;23.256;2023-05-31T10:55:19;12.80;;;6.50;;
5549;SDS011;2798;42.716;23.256;2023-05-31T10:57:54;14.77;;;6.57;;
5549;SDS011;2798;42.716;23.256;2023-05-31T11:00:21;18.47;;;6.67;;
5549;SDS011;2798;42.716;23.256;2023-05-31T11:02:48;14.40;;;6.50;;
5549;SDS011;2798;42.716;23.256;2023-05-31T11:05:19;15.60;;;6.77;;
5549;SDS011;2798;42.716;23.256;2023-05-31T11:07:49;13.10;;;5.80;;
5549;SDS011;2798;42.716;23.256;2023-05-31T11:13:01;10.50;;;5.17;;
5549;SDS011;2798;42.716;23.256;2023-05-31T11:15:41;17.57;;;6.07;;
5549;SDS011;2798;42.716;23.256;2023-05-31T11:18:08;11.73;;;5.50;;
5549;SDS011;2798;42.716;23.256;2023-05-31T11:20:35;14.07;;;5.57;;
5549;SDS011;2798;42.716;23.256;2023-05-31T11:28:55;12.37;;;5.93;;
5549;SDS011;2798;42.716;23.256;2023-05-31T11:34:18;10.93;;;6.07;;
5549;SDS011;2798;42.716;23.256;2023-05-31T11:36:44;13.40;;;5.83;;
5549;SDS011;2798;42.716;23.256;2023-05-31T11:39:11;10.97;;;5.80;;
5549;SDS011;2798;42.716;23.256;2023-05-31T11:41:37;8.43;;;5.20;;
5549;SDS011;2798;42.716;23.256;2023-05-31T11:44:02;12.60;;;6.30;;
5549;SDS011;2798;42.716;23.256;2023-05-31T11:46:35;11.13;;;6.03;;
5549;SDS011;2798;42.716;23.256;2023-05-31T11:49:05;13.77;;;4.83;;
5549;SDS011;2798;42.716;23.256;2023-05-31T11:51:32;14.03;;;5.83;;
5549;SDS011;2798;42.716;23.256;2023-05-31T11:53:57;9.83;;;5.43;;
5549;SDS011;2798;42.716;23.256;2023-05-31T11:56:31;10.43;;;5.30;;
5549;SDS011;2798;42.716;23.256;2023-05-31T11:58:58;7.57;;;4.33;;
5549;SDS011;2798;42.716;23.256;2023-05-31T12:01:24;10.90;;;4.90;;
5549;SDS011;2798;42.716;23.256;2023-05-31T12:03:59;9.93;;;5.20;;
5549;SDS011;2798;42.716;23.256;2023-05-31T12:06:25;8.70;;;5.00;;
5549;SDS011;2798;42.716;23.256;2023-05-31T12:08:54;12.03;;;5.40;;
5549;SDS011;2798;42.716;23.256;2023-05-31T12:11:20;10.90;;;5.37;;
5549;SDS011;2798;42.716;23.256;2023-05-31T12:13:49;11.50;;;5.37;;
5549;SDS011;2798;42.716;23.256;2023-05-31T12:16:14;8.70;;;5.13;;
5549;SDS011;2798;42.716;23.256;2023-05-31T12:18:40;18.83;;;5.60;;
5549;SDS011;2798;42.716;23.256;2023-05-31T12:21:09;10.97;;;5.30;;
5549;SDS011;2798;42.716;23.256;2023-05-31T12:26:22;20.07;;;6.40;;
5549;SDS011;2798;42.716;23.256;2023-05-31T12:28:48;15.90;;;8.27;;
5549;SDS011;2798;42.716;23.256;2023-05-31T12:31:22;13.37;;;6.90;;
5549;SDS011;2798;42.716;23.256;2023-05-31T12:33:52;12.40;;;7.03;;
5549;SDS011;2798;42.716;23.256;2023-05-31T12:36:36;13.00;;;6.17;;
5549;SDS011;2798;42.716;23.256;2023-05-31T12:39:19;13.33;;;6.33;;
5549;SDS011;2798;42.716;23.256;2023-05-31T12:41:45;19.93;;;6.77;;
5549;SDS011;2798;42.716;23.256;2023-05-31T12:44:12;14.80;;;6.87;;
5549;SDS011;2798;42.716;23.256;2023-05-31T12:46:44;14.97;;;6.67;;
5549;SDS011;2798;42.716;23.256;2023-05-31T12:51:43;19.00;;;7.90;;
5549;SDS011;2798;42.716;23.256;2023-05-31T12:54:10;18.93;;;6.67;;
5549;SDS011;2798;42.716;23.256;2023-05-31T12:56:40;19.97;;;6.37;;
5549;SDS011;2798;42.716;23.256;2023-05-31T12:59:06;18.10;;;7.30;;
5549;SDS011;2798;42.716;23.256;2023-05-31T13:01:32;23.43;;;7.20;;
5549;SDS011;2798;42.716;23.256;2023-05-31T13:03:58;16.70;;;6.63;;
5549;SDS011;2798;42.716;23.256;2023-05-31T13:06:24;18.73;;;7.40;;
5549;SDS011;2798;42.716;23.256;2023-05-31T13:08:50;21.10;;;8.07;;
5549;SDS011;2798;42.716;23.256;2023-05-31T13:11:15;19.30;;;7.53;;
5549;SDS011;2798;42.716;23.256;2023-05-31T13:13:40;17.00;;;7.17;;
5549;SDS011;2798;42.716;23.256;2023-05-31T13:16:07;18.73;;;8.77;;
5549;SDS011;2798;42.716;23.256;2023-05-31T13:18:33;18.07;;;7.57;;
5549;SDS011;2798;42.716;23.256;2023-05-31T13:20:58;17.30;;;7.50;;
5549;SDS011;2798;42.716;23.256;2023-05-31T13:23:24;14.83;;;7.13;;
5549;SDS011;2798;42.716;23.256;2023-05-31T13:25:50;20.80;;;8.07;;
5549;SDS011;2798;42.716;23.256;2023-05-31T13:28:16;19.50;;;7.70;;
5549;SDS011;2798;42.716;23.256;2023-05-31T13:30:41;19.20;;;7.27;;
5549;SDS011;2798;42.716;23.256;2023-05-31T13:33:07;22.10;;;8.00;;
5549;SDS011;2798;42.716;23.256;2023-05-31T13:35:32;19.07;;;7.10;;
5549;SDS011;2798;42.716;23.256;2023-05-31T13:38:00;19.40;;;7.73;;
5549;SDS011;2798;42.716;23.256;2023-05-31T13:40:25;24.43;;;8.07;;
5549;SDS011;2798;42.716;23.256;2023-05-31T13:42:50;19.63;;;8.27;;
5549;SDS011;2798;42.716;23.256;2023-05-31T13:45:16;22.93;;;7.83;;
5549;SDS011;2798;42.716;23.256;2023-05-31T13:47:41;20.97;;;8.10;;
5549;SDS011;2798;42.716;23.256;2023-05-31T13:50:07;15.57;;;6.53;;
5549;SDS011;2798;42.716;23.256;2023-05-31T13:52:32;16.80;;;6.70;;
5549;SDS011;2798;42.716;23.256;2023-05-31T13:54:58;13.60;;;7.10;;
5549;SDS011;2798;42.716;23.256;2023-05-31T13:57:25;23.63;;;8.30;;
5549;SDS011;2798;42.716;23.256;2023-05-31T13:59:50;19.73;;;7.60;;
5549;SDS011;2798;42.716;23.256;2023-05-31T14:02:16;21.00;;;7.67;;
5549;SDS011;2798;42.716;23.256;2023-05-31T14:04:42;16.23;;;7.53;;
5549;SDS011;2798;42.716;23.256;2023-05-31T14:07:07;15.43;;;6.70;;
5549;SDS011;2798;42.716;23.256;2023-05-31T14:09:33;13.97;;;6.10;;
5549;SDS011;2798;42.716;23.256;2023-05-31T14:11:58;18.00;;;7.67;;
5549;SDS011;2798;42.716;23.256;2023-05-31T14:14:24;17.47;;;7.43;;
5549;SDS011;2798;42.716;23.256;2023-05-31T14:16:50;15.13;;;7.17;;
5549;SDS011;2798;42.716;23.256;2023-05-31T14:19:17;14.60;;;6.37;;
5549;SDS011;2798;42.716;23.256;2023-05-31T14:21:43;13.33;;;6.50;;
5549;SDS011;2798;42.716;23.256;2023-05-31T14:24:08;12.80;;;6.20;;
5549;SDS011;2798;42.716;23.256;2023-05-31T14:26:34;13.43;;;5.70;;
5549;SDS011;2798;42.716;23.256;2023-05-31T14:28:59;10.87;;;5.23;;
5549;SDS011;2798;42.716;23.256;2023-05-31T14:31:24;12.17;;;6.07;;
5549;SDS011;2798;42.716;23.256;2023-05-31T14:33:50;10.93;;;6.00;;
5549;SDS011;2798;42.716;23.256;2023-05-31T14:36:16;10.70;;;6.40;;
5549;SDS011;2798;42.716;23.256;2023-05-31T14:38:41;12.77;;;5.40;;
5549;SDS011;2798;42.716;23.256;2023-05-31T14:41:07;14.07;;;6.00;;
5549;SDS011;2798;42.716;23.256;2023-05-31T14:43:32;10.17;;;5.73;;
5549;SDS011;2798;42.716;23.256;2023-05-31T14:45:57;12.87;;;6.80;;
5549;SDS011;2798;42.716;23.256;2023-05-31T14:48:23;8.77;;;5.00;;
5549;SDS011;2798;42.716;23.256;2023-05-31T14:50:48;14.30;;;6.27;;
5549;SDS011;2798;42.716;23.256;2023-05-31T14:53:14;15.70;;;6.07;;
5549;SDS011;2798;42.716;23.256;2023-05-31T14:55:40;14.90;;;6.60;;
5549;SDS011;2798;42.716;23.256;2023-05-31T14:58:05;13.47;;;6.93;;
5549;SDS011;2798;42.716;23.256;2023-05-31T15:00:31;11.23;;;5.40;;
5549;SDS011;2798;42.716;23.256;2023-05-31T15:02:57;14.50;;;6.43;;
5549;SDS011;2798;42.716;23.256;2023-05-31T15:05:22;11.57;;;5.47;;
5549;SDS011;2798;42.716;23.256;2023-05-31T15:07:47;12.13;;;5.50;;
5549;SDS011;2798;42.716;23.256;2023-05-31T15:10:13;15.20;;;6.53;;
5549;SDS011;2798;42.716;23.256;2023-05-31T15:12:38;13.37;;;5.67;;
5549;SDS011;2798;42.716;23.256;2023-05-31T15:15:04;20.70;;;7.13;;
5549;SDS011;2798;42.716;23.256;2023-05-31T15:17:30;7.43;;;4.60;;
5549;SDS011;2798;42.716;23.256;2023-05-31T15:19:55;15.53;;;6.63;;